sensor_id;sensor_type;location;lat;lon;timestamp;temperature;humidity
11126;DHT22;5617;54.046;10.676;2023-03-05T00:01:50;3.60;99.90
11126;DHT22;5617;54.046;10.676;2023-03-05T00:03:58;3.50;99.90
11126;DHT22;5617;54.046;10.676;2023-03-05T00:06:09;3.50;99.90
11126;DHT22;5617;54.046;10.676;2023-03-05T00:08:16;3.50;99.90
11126;DHT22;5617;54.046;10.676;2023-03-05T00:10:24;3.40;99.90
11126;DHT22;5617;54.046;10.676;2023-03-05T00:12:32;3.40;99.90
11126;DHT22;5617;54.046;10.676;2023-03-05T00:14:41;3.40;99.90
11126;DHT22;5617;54.046;10.676;2023-03-05T00:16:49;3.30;99.90
11126;DHT22;5617;54.046;10.676;2023-03-05T00:18:58;3.30;99.90
11126;DHT22;5617;54.046;10.676;2023-03-05T00:21:17;3.20;99.90
11126;DHT22;5617;54.046;10.676;2023-03-05T00:23:24;3.20;99.90
11126;DHT22;5617;54.046;10.676;2023-03-05T00:25:33;3.20;99.90
11126;DHT22;5617;54.046;10.676;2023-03-05T00:27:41;3.10;99.90
11126;DHT22;5617;54.046;10.676;2023-03-05T00:29:50;3.10;99.90
11126;DHT22;5617;54.046;10.676;2023-03-05T00:31:58;3.00;99.90
11126;DHT22;5617;54.046;10.676;2023-03-05T00:34:07;3.10;99.90
11126;DHT22;5617;54.046;10.676;2023-03-05T00:36:15;3.00;99.90
11126;DHT22;5617;54.046;10.676;2023-03-05T00:38:22;3.00;99.90
11126;DHT22;5617;54.046;10.676;2023-03-05T00:40:33;3.00;99.90
11126;DHT22;5617;54.046;10.676;2023-03-05T00:42:41;3.00;99.90
11126;DHT22;5617;54.046;10.676;2023-03-05T00:44:48;3.00;99.90
11126;DHT22;5617;54.046;10.676;2023-03-05T00:46:57;3.00;99.90
11126;DHT22;5617;54.046;10.676;2023-03-05T00:49:05;3.00;99.90
11126;DHT22;5617;54.046;10.676;2023-03-05T00:51:13;3.00;99.90
11126;DHT22;5617;54.046;10.676;2023-03-05T00:53:21;3.00;99.90
11126;DHT22;5617;54.046;10.676;2023-03-05T00:55:29;3.00;99.90
11126;DHT22;5617;54.046;10.676;2023-03-05T00:57:36;3.00;99.90
11126;DHT22;5617;54.046;10.676;2023-03-05T00:59:44;3.00;99.90
11126;DHT22;5617;54.046;10.676;2023-03-05T01:01:52;2.90;99.90
11126;DHT22;5617;54.046;10.676;2023-03-05T01:04:00;3.00;99.90
11126;DHT22;5617;54.046;10.676;2023-03-05T01:06:11;2.90;99.90
11126;DHT22;5617;54.046;10.676;2023-03-05T01:08:19;2.90;99.90
11126;DHT22;5617;54.046;10.676;2023-03-05T01:10:27;2.90;99.90
11126;DHT22;5617;54.046;10.676;2023-03-05T01:12:35;2.90;99.90
11126;DHT22;5617;54.046;10.676;2023-03-05T01:14:43;2.90;99.90
11126;DHT22;5617;54.046;10.676;2023-03-05T01:16:50;2.90;99.90
11126;DHT22;5617;54.046;10.676;2023-03-05T01:18:58;2.90;99.90
11126;DHT22;5617;54.046;10.676;2023-03-05T01:21:07;2.90;99.90
11126;DHT22;5617;54.046;10.676;2023-03-05T01:23:15;2.90;99.90
11126;DHT22;5617;54.046;10.676;2023-03-05T01:25:22;2.90;99.90
11126;DHT22;5617;54.046;10.676;2023-03-05T01:27:30;2.90;99.90
11126;DHT22;5617;54.046;10.676;2023-03-05T01:29:38;2.90;99.90
11126;DHT22;5617;54.046;10.676;2023-03-05T01:31:45;2.80;99.90
11126;DHT22;5617;54.046;10.676;2023-03-05T01:33:53;2.80;99.90
11126;DHT22;5617;54.046;10.676;2023-03-05T01:36:01;2.80;99.90
11126;DHT22;5617;54.046;10.676;2023-03-05T01:38:10;2.80;99.90
11126;DHT22;5617;54.046;10.676;2023-03-05T01:40:19;2.80;99.90
11126;DHT22;5617;54.046;10.676;2023-03-05T01:42:27;2.80;99.90
11126;DHT22;5617;54.046;10.676;2023-03-05T01:44:35;2.70;99.90
11126;DHT22;5617;54.046;10.676;2023-03-05T01:46:42;2.70;99.90
11126;DHT22;5617;54.046;10.676;2023-03-05T01:48:53;2.70;99.90
11126;DHT22;5617;54.046;10.676;2023-03-05T01:51:02;2.70;99.90
11126;DHT22;5617;54.046;10.676;2023-03-05T01:53:12;2.60;99.90
11126;DHT22;5617;54.046;10.676;2023-03-05T01:55:22;2.60;99.90
11126;DHT22;5617;54.046;10.676;2023-03-05T01:57:32;2.60;99.90
11126;DHT22;5617;54.046;10.676;2023-03-05T01:59:42;2.60;99.90
11126;DHT22;5617;54.046;10.676;2023-03-05T02:01:53;2.60;99.90
11126;DHT22;5617;54.046;10.676;2023-03-05T02:04:02;2.50;99.90
11126;DHT22;5617;54.046;10.676;2023-03-05T02:06:09;2.50;99.90
11126;DHT22;5617;54.046;10.676;2023-03-05T02:08:21;2.50;99.90
11126;DHT22;5617;54.046;10.676;2023-03-05T02:10:31;2.50;99.90
11126;DHT22;5617;54.046;10.676;2023-03-05T02:12:39;2.40;99.90
11126;DHT22;5617;54.046;10.676;2023-03-05T02:14:49;2.40;99.90
11126;DHT22;5617;54.046;10.676;2023-03-05T02:17:04;2.40;99.90
11126;DHT22;5617;54.046;10.676;2023-03-05T02:19:15;2.40;99.90
11126;DHT22;5617;54.046;10.676;2023-03-05T02:21:36;2.30;99.90
11126;DHT22;5617;54.046;10.676;2023-03-05T02:23:44;2.30;99.90
11126;DHT22;5617;54.046;10.676;2023-03-05T02:25:52;2.30;99.90
11126;DHT22;5617;54.046;10.676;2023-03-05T02:28:05;2.30;99.90
11126;DHT22;5617;54.046;10.676;2023-03-05T02:30:14;2.30;99.90
11126;DHT22;5617;54.046;10.676;2023-03-05T02:32:21;2.30;99.90
11126;DHT22;5617;54.046;10.676;2023-03-05T02:34:29;2.30;99.90
11126;DHT22;5617;54.046;10.676;2023-03-05T02:36:38;2.20;99.90
11126;DHT22;5617;54.046;10.676;2023-03-05T02:38:47;2.20;99.90
11126;DHT22;5617;54.046;10.676;2023-03-05T02:40:55;2.20;99.90
11126;DHT22;5617;54.046;10.676;2023-03-05T02:43:03;2.20;99.90
11126;DHT22;5617;54.046;10.676;2023-03-05T02:45:11;2.20;99.90
11126;DHT22;5617;54.046;10.676;2023-03-05T02:47:20;2.20;99.90
11126;DHT22;5617;54.046;10.676;2023-03-05T02:49:27;2.20;99.90
11126;DHT22;5617;54.046;10.676;2023-03-05T02:51:35;2.20;99.90
11126;DHT22;5617;54.046;10.676;2023-03-05T02:53:44;2.20;99.90
11126;DHT22;5617;54.046;10.676;2023-03-05T02:55:52;2.20;99.90
11126;DHT22;5617;54.046;10.676;2023-03-05T02:57:59;2.20;99.90
11126;DHT22;5617;54.046;10.676;2023-03-05T03:00:08;2.20;99.90
11126;DHT22;5617;54.046;10.676;2023-03-05T03:02:17;2.20;99.90
11126;DHT22;5617;54.046;10.676;2023-03-05T03:04:25;2.20;99.90
11126;DHT22;5617;54.046;10.676;2023-03-05T03:06:32;2.20;99.90
11126;DHT22;5617;54.046;10.676;2023-03-05T03:08:40;2.20;99.90
11126;DHT22;5617;54.046;10.676;2023-03-05T03:10:49;2.10;99.90
11126;DHT22;5617;54.046;10.676;2023-03-05T03:12:57;2.10;99.90
11126;DHT22;5617;54.046;10.676;2023-03-05T03:15:06;2.10;99.90
11126;DHT22;5617;54.046;10.676;2023-03-05T03:17:15;2.10;99.90
11126;DHT22;5617;54.046;10.676;2023-03-05T03:19:23;2.10;99.90
11126;DHT22;5617;54.046;10.676;2023-03-05T03:21:30;2.00;99.90
11126;DHT22;5617;54.046;10.676;2023-03-05T03:23:38;2.10;99.90
11126;DHT22;5617;54.046;10.676;2023-03-05T03:25:46;2.00;99.90
11126;DHT22;5617;54.046;10.676;2023-03-05T03:27:55;2.00;99.90
11126;DHT22;5617;54.046;10.676;2023-03-05T03:30:03;2.00;99.90
11126;DHT22;5617;54.046;10.676;2023-03-05T03:32:11;2.00;99.90
11126;DHT22;5617;54.046;10.676;2023-03-05T03:34:19;2.00;99.90
11126;DHT22;5617;54.046;10.676;2023-03-05T03:36:27;2.00;99.90
11126;DHT22;5617;54.046;10.676;2023-03-05T03:38:35;2.00;99.90
11126;DHT22;5617;54.046;10.676;2023-03-05T03:40:50;2.00;99.90
11126;DHT22;5617;54.046;10.676;2023-03-05T03:42:59;2.00;99.90
11126;DHT22;5617;54.046;10.676;2023-03-05T03:45:08;2.00;99.90
11126;DHT22;5617;54.046;10.676;2023-03-05T03:47:15;2.00;99.90
11126;DHT22;5617;54.046;10.676;2023-03-05T03:49:25;2.00;99.90
11126;DHT22;5617;54.046;10.676;2023-03-05T03:51:33;2.10;99.90
11126;DHT22;5617;54.046;10.676;2023-03-05T03:53:40;2.10;99.90
11126;DHT22;5617;54.046;10.676;2023-03-05T03:55:48;2.10;99.90
11126;DHT22;5617;54.046;10.676;2023-03-05T03:57:56;2.10;99.90
11126;DHT22;5617;54.046;10.676;2023-03-05T04:00:06;2.10;99.90
11126;DHT22;5617;54.046;10.676;2023-03-05T04:02:14;2.20;99.90
11126;DHT22;5617;54.046;10.676;2023-03-05T04:04:21;2.20;99.90
11126;DHT22;5617;54.046;10.676;2023-03-05T04:06:29;2.20;99.90
11126;DHT22;5617;54.046;10.676;2023-03-05T04:08:37;2.30;99.90
11126;DHT22;5617;54.046;10.676;2023-03-05T04:10:45;2.30;99.90
11126;DHT22;5617;54.046;10.676;2023-03-05T04:12:53;2.30;99.90
11126;DHT22;5617;54.046;10.676;2023-03-05T04:15:00;2.30;99.90
11126;DHT22;5617;54.046;10.676;2023-03-05T04:17:10;2.30;99.90
11126;DHT22;5617;54.046;10.676;2023-03-05T04:19:18;2.40;99.90
11126;DHT22;5617;54.046;10.676;2023-03-05T04:21:26;2.40;99.90
11126;DHT22;5617;54.046;10.676;2023-03-05T04:23:35;2.40;99.90
11126;DHT22;5617;54.046;10.676;2023-03-05T04:25:42;2.40;99.90
11126;DHT22;5617;54.046;10.676;2023-03-05T04:27:50;2.40;99.90
11126;DHT22;5617;54.046;10.676;2023-03-05T04:29:58;2.40;99.90
11126;DHT22;5617;54.046;10.676;2023-03-05T04:32:06;2.50;99.90
11126;DHT22;5617;54.046;10.676;2023-03-05T04:34:15;2.50;99.90
11126;DHT22;5617;54.046;10.676;2023-03-05T04:36:24;2.50;99.90
11126;DHT22;5617;54.046;10.676;2023-03-05T04:38:31;2.50;99.90
11126;DHT22;5617;54.046;10.676;2023-03-05T04:40:39;2.50;99.90
11126;DHT22;5617;54.046;10.676;2023-03-05T04:42:46;2.50;99.90
11126;DHT22;5617;54.046;10.676;2023-03-05T04:44:54;2.50;99.90
11126;DHT22;5617;54.046;10.676;2023-03-05T04:47:02;2.50;99.90
11126;DHT22;5617;54.046;10.676;2023-03-05T04:49:09;2.50;99.90
11126;DHT22;5617;54.046;10.676;2023-03-05T04:51:18;2.50;99.90
11126;DHT22;5617;54.046;10.676;2023-03-05T04:53:26;2.40;99.90
11126;DHT22;5617;54.046;10.676;2023-03-05T04:55:33;2.40;99.90
11126;DHT22;5617;54.046;10.676;2023-03-05T04:57:41;2.40;99.90
11126;DHT22;5617;54.046;10.676;2023-03-05T04:59:49;2.40;99.90
11126;DHT22;5617;54.046;10.676;2023-03-05T05:01:56;2.40;99.90
11126;DHT22;5617;54.046;10.676;2023-03-05T05:04:04;2.40;99.90
11126;DHT22;5617;54.046;10.676;2023-03-05T05:06:13;2.30;99.90
11126;DHT22;5617;54.046;10.676;2023-03-05T05:08:22;2.30;99.90
11126;DHT22;5617;54.046;10.676;2023-03-05T05:10:30;2.30;99.90
11126;DHT22;5617;54.046;10.676;2023-03-05T05:12:38;2.30;99.90
11126;DHT22;5617;54.046;10.676;2023-03-05T05:14:45;2.30;99.90
11126;DHT22;5617;54.046;10.676;2023-03-05T05:16:53;2.20;99.90
11126;DHT22;5617;54.046;10.676;2023-03-05T05:19:01;2.20;99.90
11126;DHT22;5617;54.046;10.676;2023-03-05T05:21:11;2.20;99.90
11126;DHT22;5617;54.046;10.676;2023-03-05T05:23:19;2.10;99.90
11126;DHT22;5617;54.046;10.676;2023-03-05T05:25:28;2.10;99.90
11126;DHT22;5617;54.046;10.676;2023-03-05T05:27:36;2.10;99.90
11126;DHT22;5617;54.046;10.676;2023-03-05T05:29:43;2.10;99.90
11126;DHT22;5617;54.046;10.676;2023-03-05T05:31:55;2.10;99.90
11126;DHT22;5617;54.046;10.676;2023-03-05T05:34:03;2.10;99.90
11126;DHT22;5617;54.046;10.676;2023-03-05T05:36:13;2.10;99.90
11126;DHT22;5617;54.046;10.676;2023-03-05T05:38:21;2.00;99.90
11126;DHT22;5617;54.046;10.676;2023-03-05T05:40:30;2.00;99.90
11126;DHT22;5617;54.046;10.676;2023-03-05T05:42:37;2.00;99.90
11126;DHT22;5617;54.046;10.676;2023-03-05T05:44:45;2.00;99.90
11126;DHT22;5617;54.046;10.676;2023-03-05T05:46:53;2.00;99.90
11126;DHT22;5617;54.046;10.676;2023-03-05T05:49:01;2.00;99.90
11126;DHT22;5617;54.046;10.676;2023-03-05T05:51:11;2.00;99.90
11126;DHT22;5617;54.046;10.676;2023-03-05T05:53:20;2.00;99.90
11126;DHT22;5617;54.046;10.676;2023-03-05T05:55:30;2.00;99.90
11126;DHT22;5617;54.046;10.676;2023-03-05T05:57:37;2.00;99.90
11126;DHT22;5617;54.046;10.676;2023-03-05T05:59:45;2.00;99.90
11126;DHT22;5617;54.046;10.676;2023-03-05T06:01:52;1.90;99.90
11126;DHT22;5617;54.046;10.676;2023-03-05T06:04:01;1.90;99.90
11126;DHT22;5617;54.046;10.676;2023-03-05T06:06:09;1.90;99.90
11126;DHT22;5617;54.046;10.676;2023-03-05T06:08:17;2.00;99.90
11126;DHT22;5617;54.046;10.676;2023-03-05T06:10:25;1.90;99.90
11126;DHT22;5617;54.046;10.676;2023-03-05T06:12:34;1.90;99.90
11126;DHT22;5617;54.046;10.676;2023-03-05T06:14:41;1.90;99.90
11126;DHT22;5617;54.046;10.676;2023-03-05T06:16:49;1.90;99.90
11126;DHT22;5617;54.046;10.676;2023-03-05T06:18:57;2.00;99.90
11126;DHT22;5617;54.046;10.676;2023-03-05T06:21:07;2.00;99.90
11126;DHT22;5617;54.046;10.676;2023-03-05T06:23:15;2.00;99.90
11126;DHT22;5617;54.046;10.676;2023-03-05T06:25:23;2.00;99.90
11126;DHT22;5617;54.046;10.676;2023-03-05T06:27:30;2.00;99.90
11126;DHT22;5617;54.046;10.676;2023-03-05T06:29:39;2.10;99.90
11126;DHT22;5617;54.046;10.676;2023-03-05T06:31:47;2.10;99.90
11126;DHT22;5617;54.046;10.676;2023-03-05T06:33:56;2.10;99.90
11126;DHT22;5617;54.046;10.676;2023-03-05T06:36:08;2.10;99.90
11126;DHT22;5617;54.046;10.676;2023-03-05T06:38:16;2.10;99.90
11126;DHT22;5617;54.046;10.676;2023-03-05T06:40:24;2.10;99.90
11126;DHT22;5617;54.046;10.676;2023-03-05T06:42:32;2.10;99.90
11126;DHT22;5617;54.046;10.676;2023-03-05T06:44:45;2.10;99.90
11126;DHT22;5617;54.046;10.676;2023-03-05T06:46:53;2.20;99.90
11126;DHT22;5617;54.046;10.676;2023-03-05T06:49:01;2.20;99.90
11126;DHT22;5617;54.046;10.676;2023-03-05T06:51:14;2.20;99.90
11126;DHT22;5617;54.046;10.676;2023-03-05T06:53:22;2.20;99.90
11126;DHT22;5617;54.046;10.676;2023-03-05T06:55:30;2.30;99.90
11126;DHT22;5617;54.046;10.676;2023-03-05T06:57:47;2.30;99.90
11126;DHT22;5617;54.046;10.676;2023-03-05T06:59:56;2.30;99.90
11126;DHT22;5617;54.046;10.676;2023-03-05T07:02:04;2.40;99.90
11126;DHT22;5617;54.046;10.676;2023-03-05T07:04:15;2.40;99.90
11126;DHT22;5617;54.046;10.676;2023-03-05T07:06:24;2.60;99.90
11126;DHT22;5617;54.046;10.676;2023-03-05T07:08:34;2.50;99.90
11126;DHT22;5617;54.046;10.676;2023-03-05T07:10:42;2.60;99.90
11126;DHT22;5617;54.046;10.676;2023-03-05T07:12:50;2.70;99.90
11126;DHT22;5617;54.046;10.676;2023-03-05T07:14:59;2.70;99.90
11126;DHT22;5617;54.046;10.676;2023-03-05T07:17:07;2.80;99.90
11126;DHT22;5617;54.046;10.676;2023-03-05T07:19:15;2.80;99.90
11126;DHT22;5617;54.046;10.676;2023-03-05T07:21:24;2.90;99.90
11126;DHT22;5617;54.046;10.676;2023-03-05T07:23:34;3.00;99.90
11126;DHT22;5617;54.046;10.676;2023-03-05T07:25:41;3.00;99.90
11126;DHT22;5617;54.046;10.676;2023-03-05T07:27:49;3.10;99.90
11126;DHT22;5617;54.046;10.676;2023-03-05T07:29:57;3.20;99.90
11126;DHT22;5617;54.046;10.676;2023-03-05T07:32:06;3.20;99.90
11126;DHT22;5617;54.046;10.676;2023-03-05T07:34:14;3.30;99.90
11126;DHT22;5617;54.046;10.676;2023-03-05T07:36:21;3.40;99.90
11126;DHT22;5617;54.046;10.676;2023-03-05T07:38:29;3.40;99.90
11126;DHT22;5617;54.046;10.676;2023-03-05T07:40:37;3.50;99.90
11126;DHT22;5617;54.046;10.676;2023-03-05T07:42:45;3.60;99.90
11126;DHT22;5617;54.046;10.676;2023-03-05T07:44:52;3.70;99.90
11126;DHT22;5617;54.046;10.676;2023-03-05T07:47:00;3.70;99.90
11126;DHT22;5617;54.046;10.676;2023-03-05T07:49:09;3.90;99.90
11126;DHT22;5617;54.046;10.676;2023-03-05T07:51:18;4.00;99.90
11126;DHT22;5617;54.046;10.676;2023-03-05T07:53:25;4.00;99.90
11126;DHT22;5617;54.046;10.676;2023-03-05T07:55:33;4.10;99.90
11126;DHT22;5617;54.046;10.676;2023-03-05T07:57:41;4.20;99.90
11126;DHT22;5617;54.046;10.676;2023-03-05T07:59:48;4.20;99.90
11126;DHT22;5617;54.046;10.676;2023-03-05T08:01:56;4.30;99.90
11126;DHT22;5617;54.046;10.676;2023-03-05T08:04:05;4.40;99.90
11126;DHT22;5617;54.046;10.676;2023-03-05T08:06:15;4.50;99.90
11126;DHT22;5617;54.046;10.676;2023-03-05T08:08:23;4.70;99.90
11126;DHT22;5617;54.046;10.676;2023-03-05T08:10:30;4.80;99.90
11126;DHT22;5617;54.046;10.676;2023-03-05T08:12:38;4.90;99.90
11126;DHT22;5617;54.046;10.676;2023-03-05T08:14:46;4.90;99.90
11126;DHT22;5617;54.046;10.676;2023-03-05T08:16:54;4.90;99.90
11126;DHT22;5617;54.046;10.676;2023-03-05T08:19:01;5.00;99.90
11126;DHT22;5617;54.046;10.676;2023-03-05T08:21:17;5.10;99.90
11126;DHT22;5617;54.046;10.676;2023-03-05T08:23:25;5.30;99.90
11126;DHT22;5617;54.046;10.676;2023-03-05T08:25:33;5.40;99.90
11126;DHT22;5617;54.046;10.676;2023-03-05T08:27:42;5.60;99.90
11126;DHT22;5617;54.046;10.676;2023-03-05T08:29:50;5.50;99.90
11126;DHT22;5617;54.046;10.676;2023-03-05T08:31:58;5.60;99.90
11126;DHT22;5617;54.046;10.676;2023-03-05T08:34:05;5.70;99.90
11126;DHT22;5617;54.046;10.676;2023-03-05T08:36:13;5.70;99.90
11126;DHT22;5617;54.046;10.676;2023-03-05T08:38:22;5.70;99.90
11126;DHT22;5617;54.046;10.676;2023-03-05T08:40:30;5.60;99.90
11126;DHT22;5617;54.046;10.676;2023-03-05T08:42:37;5.70;99.90
11126;DHT22;5617;54.046;10.676;2023-03-05T08:44:45;5.70;99.90
11126;DHT22;5617;54.046;10.676;2023-03-05T08:46:52;5.90;99.90
11126;DHT22;5617;54.046;10.676;2023-03-05T08:49:00;6.10;99.80
11126;DHT22;5617;54.046;10.676;2023-03-05T08:51:11;6.20;99.90
11126;DHT22;5617;54.046;10.676;2023-03-05T08:53:19;6.30;99.40
11126;DHT22;5617;54.046;10.676;2023-03-05T08:55:28;6.30;99.10
11126;DHT22;5617;54.046;10.676;2023-03-05T08:57:36;6.20;99.30
11126;DHT22;5617;54.046;10.676;2023-03-05T08:59:44;6.00;98.70
11126;DHT22;5617;54.046;10.676;2023-03-05T09:01:52;5.90;98.00
11126;DHT22;5617;54.046;10.676;2023-03-05T09:04:01;5.80;98.40
11126;DHT22;5617;54.046;10.676;2023-03-05T09:06:09;5.80;98.40
11126;DHT22;5617;54.046;10.676;2023-03-05T09:08:18;5.80;98.20
11126;DHT22;5617;54.046;10.676;2023-03-05T09:10:27;5.90;98.10
11126;DHT22;5617;54.046;10.676;2023-03-05T09:12:35;6.00;98.00
11126;DHT22;5617;54.046;10.676;2023-03-05T09:14:43;6.20;98.00
11126;DHT22;5617;54.046;10.676;2023-03-05T09:16:50;6.30;97.90
11126;DHT22;5617;54.046;10.676;2023-03-05T09:18:58;6.30;97.60
11126;DHT22;5617;54.046;10.676;2023-03-05T09:21:07;6.20;97.50
11126;DHT22;5617;54.046;10.676;2023-03-05T09:23:15;6.20;97.60
11126;DHT22;5617;54.046;10.676;2023-03-05T09:25:23;6.20;97.40
11126;DHT22;5617;54.046;10.676;2023-03-05T09:27:33;6.20;97.10
11126;DHT22;5617;54.046;10.676;2023-03-05T09:29:41;6.10;96.60
11126;DHT22;5617;54.046;10.676;2023-03-05T09:31:50;6.20;96.80
11126;DHT22;5617;54.046;10.676;2023-03-05T09:33:58;6.20;97.00
11126;DHT22;5617;54.046;10.676;2023-03-05T09:36:16;6.40;96.90
11126;DHT22;5617;54.046;10.676;2023-03-05T09:38:24;6.40;96.80
11126;DHT22;5617;54.046;10.676;2023-03-05T09:40:39;6.50;97.00
11126;DHT22;5617;54.046;10.676;2023-03-05T09:43:02;6.60;95.70
11126;DHT22;5617;54.046;10.676;2023-03-05T09:45:19;6.70;95.60
11126;DHT22;5617;54.046;10.676;2023-03-05T09:47:43;6.70;94.90
11126;DHT22;5617;54.046;10.676;2023-03-05T09:49:57;6.80;95.10
11126;DHT22;5617;54.046;10.676;2023-03-05T09:52:10;6.70;95.10
11126;DHT22;5617;54.046;10.676;2023-03-05T09:54:22;6.60;95.10
11126;DHT22;5617;54.046;10.676;2023-03-05T09:56:34;6.60;94.90
11126;DHT22;5617;54.046;10.676;2023-03-05T09:58:46;6.60;94.70
11126;DHT22;5617;54.046;10.676;2023-03-05T10:00:57;6.70;94.80
11126;DHT22;5617;54.046;10.676;2023-03-05T10:03:13;6.70;94.90
11126;DHT22;5617;54.046;10.676;2023-03-05T10:05:27;6.60;94.80
11126;DHT22;5617;54.046;10.676;2023-03-05T10:07:38;6.80;94.90
11126;DHT22;5617;54.046;10.676;2023-03-05T10:09:50;7.00;95.00
11126;DHT22;5617;54.046;10.676;2023-03-05T10:12:04;7.00;94.70
11126;DHT22;5617;54.046;10.676;2023-03-05T10:14:20;6.90;94.60
11126;DHT22;5617;54.046;10.676;2023-03-05T10:16:45;6.80;94.00
11126;DHT22;5617;54.046;10.676;2023-03-05T10:18:58;6.80;94.20
11126;DHT22;5617;54.046;10.676;2023-03-05T10:21:11;6.90;94.30
11126;DHT22;5617;54.046;10.676;2023-03-05T10:23:28;7.10;94.10
11126;DHT22;5617;54.046;10.676;2023-03-05T10:25:57;7.20;94.40
11126;DHT22;5617;54.046;10.676;2023-03-05T10:28:11;7.20;93.90
11126;DHT22;5617;54.046;10.676;2023-03-05T10:30:39;7.00;93.50
11126;DHT22;5617;54.046;10.676;2023-03-05T10:32:56;6.90;93.10
11126;DHT22;5617;54.046;10.676;2023-03-05T10:35:18;6.80;92.60
11126;DHT22;5617;54.046;10.676;2023-03-05T10:37:55;6.70;92.70
11126;DHT22;5617;54.046;10.676;2023-03-05T10:40:13;6.60;92.60
11126;DHT22;5617;54.046;10.676;2023-03-05T10:42:28;6.60;92.30
11126;DHT22;5617;54.046;10.676;2023-03-05T10:44:41;6.40;92.40
11126;DHT22;5617;54.046;10.676;2023-03-05T10:46:55;6.30;92.30
11126;DHT22;5617;54.046;10.676;2023-03-05T10:49:11;6.30;92.40
11126;DHT22;5617;54.046;10.676;2023-03-05T10:51:24;6.20;92.30
11126;DHT22;5617;54.046;10.676;2023-03-05T10:53:41;6.10;92.50
11126;DHT22;5617;54.046;10.676;2023-03-05T10:55:51;6.00;92.10
11126;DHT22;5617;54.046;10.676;2023-03-05T10:58:10;5.90;92.40
11126;DHT22;5617;54.046;10.676;2023-03-05T11:00:19;5.90;92.50
11126;DHT22;5617;54.046;10.676;2023-03-05T11:02:29;5.90;92.50
11126;DHT22;5617;54.046;10.676;2023-03-05T11:04:38;5.90;92.40
11126;DHT22;5617;54.046;10.676;2023-03-05T11:06:46;5.90;92.50
11126;DHT22;5617;54.046;10.676;2023-03-05T11:09:02;5.80;92.40
11126;DHT22;5617;54.046;10.676;2023-03-05T11:11:22;5.80;92.50
11126;DHT22;5617;54.046;10.676;2023-03-05T11:13:31;5.80;92.70
11126;DHT22;5617;54.046;10.676;2023-03-05T11:15:39;5.80;92.70
11126;DHT22;5617;54.046;10.676;2023-03-05T11:18:10;5.80;92.80
11126;DHT22;5617;54.046;10.676;2023-03-05T11:20:31;5.70;92.50
11126;DHT22;5617;54.046;10.676;2023-03-05T11:22:39;5.60;92.30
11126;DHT22;5617;54.046;10.676;2023-03-05T11:25:10;5.60;92.20
11126;DHT22;5617;54.046;10.676;2023-03-05T11:27:23;5.70;92.30
11126;DHT22;5617;54.046;10.676;2023-03-05T11:29:32;5.60;91.90
11126;DHT22;5617;54.046;10.676;2023-03-05T11:31:40;5.60;91.90
11126;DHT22;5617;54.046;10.676;2023-03-05T11:33:58;5.70;92.10
11126;DHT22;5617;54.046;10.676;2023-03-05T11:36:21;5.70;92.00
11126;DHT22;5617;54.046;10.676;2023-03-05T11:38:29;5.90;92.10
11126;DHT22;5617;54.046;10.676;2023-03-05T11:40:36;6.00;92.20
11126;DHT22;5617;54.046;10.676;2023-03-05T11:42:44;6.10;92.30
11126;DHT22;5617;54.046;10.676;2023-03-05T11:44:57;6.10;92.30
11126;DHT22;5617;54.046;10.676;2023-03-05T11:47:15;6.20;92.10
11126;DHT22;5617;54.046;10.676;2023-03-05T11:49:28;6.20;92.00
11126;DHT22;5617;54.046;10.676;2023-03-05T11:51:40;6.20;92.10
11126;DHT22;5617;54.046;10.676;2023-03-05T11:53:50;6.10;91.80
11126;DHT22;5617;54.046;10.676;2023-03-05T11:56:04;6.10;91.90
11126;DHT22;5617;54.046;10.676;2023-03-05T11:58:25;6.00;91.90
11126;DHT22;5617;54.046;10.676;2023-03-05T12:00:35;6.00;91.60
11126;DHT22;5617;54.046;10.676;2023-03-05T12:02:46;6.10;91.80
11126;DHT22;5617;54.046;10.676;2023-03-05T12:04:58;6.10;91.60
11126;DHT22;5617;54.046;10.676;2023-03-05T12:07:12;6.20;91.80
11126;DHT22;5617;54.046;10.676;2023-03-05T12:09:25;6.20;91.80
11126;DHT22;5617;54.046;10.676;2023-03-05T12:11:36;6.30;92.20
11126;DHT22;5617;54.046;10.676;2023-03-05T12:13:46;6.40;91.90
11126;DHT22;5617;54.046;10.676;2023-03-05T12:16:05;6.40;91.70
11126;DHT22;5617;54.046;10.676;2023-03-05T12:18:28;6.40;91.50
11126;DHT22;5617;54.046;10.676;2023-03-05T12:20:41;6.30;91.40
11126;DHT22;5617;54.046;10.676;2023-03-05T12:22:53;6.30;91.60
11126;DHT22;5617;54.046;10.676;2023-03-05T12:25:23;6.30;91.80
11126;DHT22;5617;54.046;10.676;2023-03-05T12:27:33;6.20;91.50
11126;DHT22;5617;54.046;10.676;2023-03-05T12:29:46;6.10;91.80
11126;DHT22;5617;54.046;10.676;2023-03-05T12:31:54;6.00;91.80
11126;DHT22;5617;54.046;10.676;2023-03-05T12:34:34;5.90;91.80
11126;DHT22;5617;54.046;10.676;2023-03-05T12:36:44;5.90;91.40
11126;DHT22;5617;54.046;10.676;2023-03-05T12:38:55;5.80;91.60
11126;DHT22;5617;54.046;10.676;2023-03-05T12:41:31;5.80;91.60
11126;DHT22;5617;54.046;10.676;2023-03-05T12:43:39;5.70;91.70
11126;DHT22;5617;54.046;10.676;2023-03-05T12:45:47;5.70;91.90
11126;DHT22;5617;54.046;10.676;2023-03-05T12:48:33;5.70;92.00
11126;DHT22;5617;54.046;10.676;2023-03-05T12:50:49;5.70;92.00
11126;DHT22;5617;54.046;10.676;2023-03-05T12:53:09;5.60;91.90
11126;DHT22;5617;54.046;10.676;2023-03-05T12:55:21;5.50;92.10
11126;DHT22;5617;54.046;10.676;2023-03-05T12:57:29;5.50;92.20
11126;DHT22;5617;54.046;10.676;2023-03-05T12:59:41;5.60;92.30
11126;DHT22;5617;54.046;10.676;2023-03-05T13:01:53;5.60;92.40
11126;DHT22;5617;54.046;10.676;2023-03-05T13:04:04;5.70;92.30
11126;DHT22;5617;54.046;10.676;2023-03-05T13:06:24;6.00;92.50
11126;DHT22;5617;54.046;10.676;2023-03-05T13:08:35;6.40;92.50
11126;DHT22;5617;54.046;10.676;2023-03-05T13:10:50;6.50;92.20
11126;DHT22;5617;54.046;10.676;2023-03-05T13:12:58;6.60;92.20
11126;DHT22;5617;54.046;10.676;2023-03-05T13:15:14;7.00;92.20
11126;DHT22;5617;54.046;10.676;2023-03-05T13:17:33;7.40;92.00
11126;DHT22;5617;54.046;10.676;2023-03-05T13:19:43;7.60;91.80
11126;DHT22;5617;54.046;10.676;2023-03-05T13:21:59;7.70;91.60
11126;DHT22;5617;54.046;10.676;2023-03-05T13:24:16;7.90;91.70
11126;DHT22;5617;54.046;10.676;2023-03-05T13:26:25;7.70;91.50
11126;DHT22;5617;54.046;10.676;2023-03-05T13:28:33;7.50;91.40
11126;DHT22;5617;54.046;10.676;2023-03-05T13:30:44;7.30;91.40
11126;DHT22;5617;54.046;10.676;2023-03-05T13:32:59;7.10;91.60
11126;DHT22;5617;54.046;10.676;2023-03-05T13:35:11;7.00;91.80
11126;DHT22;5617;54.046;10.676;2023-03-05T13:37:20;6.70;92.00
11126;DHT22;5617;54.046;10.676;2023-03-05T13:39:33;6.50;92.70
11126;DHT22;5617;54.046;10.676;2023-03-05T14:12:28;5.60;94.60
11126;DHT22;5617;54.046;10.676;2023-03-05T14:14:37;5.60;95.00
11126;DHT22;5617;54.046;10.676;2023-03-05T14:16:45;5.50;95.20
11126;DHT22;5617;54.046;10.676;2023-03-05T14:18:54;5.60;95.40
11126;DHT22;5617;54.046;10.676;2023-03-05T14:21:04;5.70;95.50
11126;DHT22;5617;54.046;10.676;2023-03-05T14:23:32;5.90;95.70
11126;DHT22;5617;54.046;10.676;2023-03-05T14:25:40;5.80;95.60
11126;DHT22;5617;54.046;10.676;2023-03-05T14:27:49;5.90;95.60